sensor_id;sensor_type;location;lat;lon;timestamp;P1;durP1;ratioP1;P2;durP2;ratioP2
82473;SDS011;72350;53.232;6.556;2024-03-08T00:00:38;44.20;;;24.90;;
82473;SDS011;72350;53.232;6.556;2024-03-08T00:03:08;45.17;;;25.17;;
82473;SDS011;72350;53.232;6.556;2024-03-08T00:05:37;43.35;;;24.40;;
82473;SDS011;72350;53.232;6.556;2024-03-08T00:08:05;45.28;;;26.08;;
82473;SDS011;72350;53.232;6.556;2024-03-08T00:10:36;46.55;;;25.65;;
82473;SDS011;72350;53.232;6.556;2024-03-08T00:13:05;49.22;;;27.15;;
82473;SDS011;72350;53.232;6.556;2024-03-08T00:15:33;52.60;;;26.77;;
82473;SDS011;72350;53.232;6.556;2024-03-08T00:18:02;47.50;;;26.00;;
82473;SDS011;72350;53.232;6.556;2024-03-08T00:20:32;47.15;;;26.05;;
82473;SDS011;72350;53.232;6.556;2024-03-08T00:23:01;47.10;;;26.45;;
82473;SDS011;72350;53.232;6.556;2024-03-08T00:25:29;48.83;;;26.45;;
82473;SDS011;72350;53.232;6.556;2024-03-08T00:27:57;50.58;;;26.23;;
82473;SDS011;72350;53.232;6.556;2024-03-08T00:30:26;48.00;;;26.02;;
82473;SDS011;72350;53.232;6.556;2024-03-08T00:32:54;53.15;;;27.50;;
82473;SDS011;72350;53.232;6.556;2024-03-08T00:35:22;48.17;;;26.15;;
82473;SDS011;72350;53.232;6.556;2024-03-08T00:37:51;50.70;;;27.15;;
82473;SDS011;72350;53.232;6.556;2024-03-08T00:40:22;58.47;;;29.02;;
82473;SDS011;72350;53.232;6.556;2024-03-08T00:42:50;52.35;;;26.10;;
82473;SDS011;72350;53.232;6.556;2024-03-08T00:45:19;54.50;;;26.15;;
82473;SDS011;72350;53.232;6.556;2024-03-08T00:47:48;50.88;;;26.52;;
82473;SDS011;72350;53.232;6.556;2024-03-08T00:50:16;53.75;;;26.67;;
82473;SDS011;72350;53.232;6.556;2024-03-08T00:52:47;49.75;;;25.65;;
82473;SDS011;72350;53.232;6.556;2024-03-08T00:55:16;53.78;;;26.88;;
82473;SDS011;72350;53.232;6.556;2024-03-08T00:57:44;50.70;;;26.70;;
82473;SDS011;72350;53.232;6.556;2024-03-08T01:00:12;51.92;;;27.50;;
82473;SDS011;72350;53.232;6.556;2024-03-08T01:02:41;55.30;;;27.27;;
82473;SDS011;72350;53.232;6.556;2024-03-08T01:05:09;52.22;;;27.55;;
82473;SDS011;72350;53.232;6.556;2024-03-08T01:07:36;51.60;;;27.75;;
82473;SDS011;72350;53.232;6.556;2024-03-08T01:10:05;54.40;;;28.73;;
82473;SDS011;72350;53.232;6.556;2024-03-08T01:12:37;56.53;;;28.45;;
82473;SDS011;72350;53.232;6.556;2024-03-08T01:15:06;53.72;;;27.52;;
82473;SDS011;72350;53.232;6.556;2024-03-08T01:17:34;63.28;;;29.88;;
82473;SDS011;72350;53.232;6.556;2024-03-08T01:20:03;51.50;;;26.58;;
82473;SDS011;72350;53.232;6.556;2024-03-08T01:22:31;56.03;;;27.98;;
82473;SDS011;72350;53.232;6.556;2024-03-08T01:24:59;52.97;;;26.20;;
82473;SDS011;72350;53.232;6.556;2024-03-08T01:27:26;51.83;;;26.60;;
82473;SDS011;72350;53.232;6.556;2024-03-08T01:29:56;53.80;;;27.10;;
82473;SDS011;72350;53.232;6.556;2024-03-08T01:32:24;51.30;;;26.38;;
82473;SDS011;72350;53.232;6.556;2024-03-08T01:34:52;53.58;;;27.77;;
82473;SDS011;72350;53.232;6.556;2024-03-08T01:37:20;52.40;;;26.13;;
82473;SDS011;72350;53.232;6.556;2024-03-08T01:39:48;50.63;;;25.92;;
82473;SDS011;72350;53.232;6.556;2024-03-08T01:42:16;50.13;;;26.17;;
82473;SDS011;72350;53.232;6.556;2024-03-08T01:44:44;50.15;;;25.67;;
82473;SDS011;72350;53.232;6.556;2024-03-08T01:47:13;53.38;;;26.55;;
82473;SDS011;72350;53.232;6.556;2024-03-08T01:49:41;50.28;;;25.65;;
82473;SDS011;72350;53.232;6.556;2024-03-08T01:52:10;50.47;;;26.48;;
82473;SDS011;72350;53.232;6.556;2024-03-08T01:54:38;46.40;;;24.45;;
82473;SDS011;72350;53.232;6.556;2024-03-08T01:57:07;52.05;;;27.30;;
82473;SDS011;72350;53.232;6.556;2024-03-08T01:59:35;52.95;;;27.70;;
82473;SDS011;72350;53.232;6.556;2024-03-08T02:02:03;53.38;;;27.00;;
82473;SDS011;72350;53.232;6.556;2024-03-08T02:04:36;51.03;;;26.10;;
82473;SDS011;72350;53.232;6.556;2024-03-08T02:07:05;57.45;;;26.88;;
82473;SDS011;72350;53.232;6.556;2024-03-08T02:09:36;54.50;;;25.33;;
82473;SDS011;72350;53.232;6.556;2024-03-08T02:12:04;48.95;;;26.80;;
82473;SDS011;72350;53.232;6.556;2024-03-08T02:14:36;50.97;;;26.87;;
82473;SDS011;72350;53.232;6.556;2024-03-08T02:17:04;52.33;;;26.83;;
82473;SDS011;72350;53.232;6.556;2024-03-08T02:19:32;52.72;;;26.15;;
82473;SDS011;72350;53.232;6.556;2024-03-08T02:22:03;51.65;;;26.25;;
82473;SDS011;72350;53.232;6.556;2024-03-08T02:24:33;56.42;;;24.95;;
82473;SDS011;72350;53.232;6.556;2024-03-08T02:27:01;50.35;;;24.95;;
82473;SDS011;72350;53.232;6.556;2024-03-08T02:29:29;58.70;;;27.58;;
82473;SDS011;72350;53.232;6.556;2024-03-08T02:31:58;50.90;;;25.30;;
82473;SDS011;72350;53.232;6.556;2024-03-08T02:34:26;46.40;;;25.10;;
82473;SDS011;72350;53.232;6.556;2024-03-08T02:36:55;43.03;;;23.80;;
82473;SDS011;72350;53.232;6.556;2024-03-08T02:39:25;46.15;;;24.40;;
82473;SDS011;72350;53.232;6.556;2024-03-08T02:41:54;44.35;;;23.70;;
82473;SDS011;72350;53.232;6.556;2024-03-08T02:44:22;44.80;;;24.05;;
82473;SDS011;72350;53.232;6.556;2024-03-08T02:46:50;44.88;;;23.05;;
82473;SDS011;72350;53.232;6.556;2024-03-08T02:49:21;43.05;;;23.60;;
82473;SDS011;72350;53.232;6.556;2024-03-08T02:51:49;41.38;;;22.73;;
82473;SDS011;72350;53.232;6.556;2024-03-08T02:54:17;46.75;;;25.20;;
82473;SDS011;72350;53.232;6.556;2024-03-08T02:56:47;43.55;;;23.13;;
82473;SDS011;72350;53.232;6.556;2024-03-08T02:59:16;46.42;;;24.30;;
82473;SDS011;72350;53.232;6.556;2024-03-08T03:01:45;47.60;;;22.77;;
82473;SDS011;72350;53.232;6.556;2024-03-08T03:04:13;43.83;;;22.75;;
82473;SDS011;72350;53.232;6.556;2024-03-08T03:06:41;46.25;;;23.17;;
82473;SDS011;72350;53.232;6.556;2024-03-08T03:09:09;47.65;;;23.52;;
82473;SDS011;72350;53.232;6.556;2024-03-08T03:11:37;47.25;;;23.25;;
82473;SDS011;72350;53.232;6.556;2024-03-08T03:14:06;43.95;;;22.52;;
82473;SDS011;72350;53.232;6.556;2024-03-08T03:16:35;46.58;;;22.75;;
82473;SDS011;72350;53.232;6.556;2024-03-08T03:19:03;44.08;;;22.50;;
82473;SDS011;72350;53.232;6.556;2024-03-08T03:21:31;44.80;;;23.00;;
82473;SDS011;72350;53.232;6.556;2024-03-08T03:24:02;39.90;;;22.23;;
82473;SDS011;72350;53.232;6.556;2024-03-08T03:26:30;38.63;;;22.25;;
82473;SDS011;72350;53.232;6.556;2024-03-08T03:28:58;41.63;;;23.33;;
82473;SDS011;72350;53.232;6.556;2024-03-08T03:31:28;44.67;;;22.10;;
82473;SDS011;72350;53.232;6.556;2024-03-08T03:33:56;44.45;;;21.77;;
82473;SDS011;72350;53.232;6.556;2024-03-08T03:36:28;44.13;;;22.30;;
82473;SDS011;72350;53.232;6.556;2024-03-08T03:38:56;46.90;;;23.42;;
82473;SDS011;72350;53.232;6.556;2024-03-08T03:41:33;42.10;;;20.98;;
82473;SDS011;72350;53.232;6.556;2024-03-08T03:44:01;41.38;;;21.27;;
82473;SDS011;72350;53.232;6.556;2024-03-08T03:46:30;42.42;;;22.90;;
82473;SDS011;72350;53.232;6.556;2024-03-08T03:48:58;41.88;;;22.10;;
82473;SDS011;72350;53.232;6.556;2024-03-08T03:51:26;41.20;;;21.75;;
82473;SDS011;72350;53.232;6.556;2024-03-08T03:53:55;44.95;;;21.63;;
82473;SDS011;72350;53.232;6.556;2024-03-08T03:56:26;44.05;;;22.45;;
82473;SDS011;72350;53.232;6.556;2024-03-08T03:58:54;42.15;;;21.92;;
82473;SDS011;72350;53.232;6.556;2024-03-08T04:01:22;42.72;;;22.25;;
82473;SDS011;72350;53.232;6.556;2024-03-08T04:03:52;41.17;;;21.85;;
82473;SDS011;72350;53.232;6.556;2024-03-08T04:06:20;43.00;;;21.85;;
82473;SDS011;72350;53.232;6.556;2024-03-08T04:08:49;38.83;;;21.48;;
82473;SDS011;72350;53.232;6.556;2024-03-08T04:11:17;40.40;;;21.05;;
82473;SDS011;72350;53.232;6.556;2024-03-08T04:13:45;39.85;;;22.23;;
82473;SDS011;72350;53.232;6.556;2024-03-08T04:16:12;42.15;;;22.45;;
82473;SDS011;72350;53.232;6.556;2024-03-08T04:18:40;45.38;;;22.17;;
82473;SDS011;72350;53.232;6.556;2024-03-08T04:21:11;41.53;;;21.70;;
82473;SDS011;72350;53.232;6.556;2024-03-08T04:23:39;42.47;;;20.52;;
82473;SDS011;72350;53.232;6.556;2024-03-08T04:26:07;37.35;;;20.83;;
82473;SDS011;72350;53.232;6.556;2024-03-08T04:28:35;40.33;;;21.92;;
82473;SDS011;72350;53.232;6.556;2024-03-08T04:31:03;41.60;;;20.27;;
82473;SDS011;72350;53.232;6.556;2024-03-08T04:33:31;45.10;;;20.77;;
82473;SDS011;72350;53.232;6.556;2024-03-08T04:35:59;42.72;;;21.92;;
82473;SDS011;72350;53.232;6.556;2024-03-08T04:38:29;39.60;;;20.98;;
82473;SDS011;72350;53.232;6.556;2024-03-08T04:40:57;41.95;;;21.70;;
82473;SDS011;72350;53.232;6.556;2024-03-08T04:43:25;41.45;;;21.98;;
82473;SDS011;72350;53.232;6.556;2024-03-08T04:45:54;44.30;;;21.30;;
82473;SDS011;72350;53.232;6.556;2024-03-08T04:48:22;40.25;;;20.63;;
82473;SDS011;72350;53.232;6.556;2024-03-08T04:50:50;36.65;;;20.75;;
82473;SDS011;72350;53.232;6.556;2024-03-08T04:53:18;37.65;;;20.83;;
82473;SDS011;72350;53.232;6.556;2024-03-08T04:55:48;40.30;;;20.88;;
82473;SDS011;72350;53.232;6.556;2024-03-08T04:58:16;37.75;;;21.95;;
82473;SDS011;72350;53.232;6.556;2024-03-08T05:00:44;39.35;;;19.60;;
82473;SDS011;72350;53.232;6.556;2024-03-08T05:03:12;40.25;;;21.20;;
82473;SDS011;72350;53.232;6.556;2024-03-08T05:05:40;41.38;;;20.33;;
82473;SDS011;72350;53.232;6.556;2024-03-08T05:08:08;38.20;;;20.15;;
82473;SDS011;72350;53.232;6.556;2024-03-08T05:10:36;37.97;;;20.42;;
82473;SDS011;72350;53.232;6.556;2024-03-08T05:13:05;39.67;;;21.05;;
82473;SDS011;72350;53.232;6.556;2024-03-08T05:15:33;36.60;;;19.42;;
82473;SDS011;72350;53.232;6.556;2024-03-08T05:18:02;39.67;;;20.52;;
82473;SDS011;72350;53.232;6.556;2024-03-08T05:20:31;38.13;;;19.35;;
82473;SDS011;72350;53.232;6.556;2024-03-08T05:22:59;41.55;;;19.48;;
82473;SDS011;72350;53.232;6.556;2024-03-08T05:25:27;40.22;;;19.98;;
82473;SDS011;72350;53.232;6.556;2024-03-08T05:27:55;38.00;;;19.20;;
82473;SDS011;72350;53.232;6.556;2024-03-08T05:30:24;43.45;;;20.15;;
82473;SDS011;72350;53.232;6.556;2024-03-08T05:32:52;37.00;;;20.85;;
82473;SDS011;72350;53.232;6.556;2024-03-08T05:35:21;43.58;;;20.05;;
82473;SDS011;72350;53.232;6.556;2024-03-08T05:37:51;44.72;;;21.17;;
82473;SDS011;72350;53.232;6.556;2024-03-08T05:40:19;40.85;;;20.00;;
82473;SDS011;72350;53.232;6.556;2024-03-08T05:42:49;39.00;;;20.33;;
82473;SDS011;72350;53.232;6.556;2024-03-08T05:45:17;40.78;;;22.15;;
82473;SDS011;72350;53.232;6.556;2024-03-08T05:47:46;41.20;;;20.42;;
82473;SDS011;72350;53.232;6.556;2024-03-08T05:50:15;38.42;;;20.10;;
82473;SDS011;72350;53.232;6.556;2024-03-08T05:52:43;39.25;;;21.17;;
82473;SDS011;72350;53.232;6.556;2024-03-08T05:55:11;39.08;;;21.05;;
82473;SDS011;72350;53.232;6.556;2024-03-08T05:57:40;41.42;;;21.88;;
82473;SDS011;72350;53.232;6.556;2024-03-08T06:00:09;38.55;;;20.83;;
82473;SDS011;72350;53.232;6.556;2024-03-08T06:02:38;36.97;;;19.00;;
82473;SDS011;72350;53.232;6.556;2024-03-08T06:05:10;41.72;;;22.42;;
82473;SDS011;72350;53.232;6.556;2024-03-08T06:07:38;42.63;;;21.60;;
82473;SDS011;72350;53.232;6.556;2024-03-08T06:10:08;45.40;;;23.25;;
82473;SDS011;72350;53.232;6.556;2024-03-08T06:12:39;42.37;;;21.63;;
82473;SDS011;72350;53.232;6.556;2024-03-08T06:15:09;43.33;;;23.48;;
82473;SDS011;72350;53.232;6.556;2024-03-08T06:17:41;38.28;;;21.27;;
82473;SDS011;72350;53.232;6.556;2024-03-08T06:20:11;38.47;;;21.55;;
82473;SDS011;72350;53.232;6.556;2024-03-08T06:22:40;40.08;;;21.65;;
82473;SDS011;72350;53.232;6.556;2024-03-08T06:25:08;42.85;;;22.38;;
82473;SDS011;72350;53.232;6.556;2024-03-08T06:27:37;38.78;;;19.70;;
82473;SDS011;72350;53.232;6.556;2024-03-08T06:30:06;40.30;;;22.13;;
82473;SDS011;72350;53.232;6.556;2024-03-08T06:32:36;37.88;;;20.88;;
82473;SDS011;72350;53.232;6.556;2024-03-08T06:35:05;38.95;;;20.02;;
82473;SDS011;72350;53.232;6.556;2024-03-08T06:37:36;40.65;;;21.20;;
82473;SDS011;72350;53.232;6.556;2024-03-08T06:40:04;38.40;;;19.85;;
82473;SDS011;72350;53.232;6.556;2024-03-08T06:42:34;42.15;;;21.00;;
82473;SDS011;72350;53.232;6.556;2024-03-08T06:45:03;36.60;;;20.40;;
82473;SDS011;72350;53.232;6.556;2024-03-08T06:47:32;35.22;;;19.20;;
82473;SDS011;72350;53.232;6.556;2024-03-08T06:50:01;36.13;;;20.48;;
82473;SDS011;72350;53.232;6.556;2024-03-08T06:52:30;36.13;;;19.58;;
82473;SDS011;72350;53.232;6.556;2024-03-08T06:55:00;37.42;;;20.35;;
82473;SDS011;72350;53.232;6.556;2024-03-08T06:57:28;32.95;;;19.60;;
82473;SDS011;72350;53.232;6.556;2024-03-08T06:59:57;35.28;;;19.25;;
82473;SDS011;72350;53.232;6.556;2024-03-08T07:02:26;38.20;;;22.02;;
82473;SDS011;72350;53.232;6.556;2024-03-08T07:04:54;37.38;;;19.63;;
82473;SDS011;72350;53.232;6.556;2024-03-08T07:07:23;36.17;;;20.08;;
82473;SDS011;72350;53.232;6.556;2024-03-08T07:09:53;36.17;;;19.35;;
82473;SDS011;72350;53.232;6.556;2024-03-08T07:12:24;32.75;;;17.58;;
82473;SDS011;72350;53.232;6.556;2024-03-08T07:14:52;35.33;;;18.15;;
82473;SDS011;72350;53.232;6.556;2024-03-08T07:17:20;35.50;;;20.20;;
82473;SDS011;72350;53.232;6.556;2024-03-08T07:19:48;37.72;;;19.45;;
82473;SDS011;72350;53.232;6.556;2024-03-08T07:22:17;37.28;;;19.30;;
82473;SDS011;72350;53.232;6.556;2024-03-08T07:24:45;33.08;;;18.58;;
82473;SDS011;72350;53.232;6.556;2024-03-08T07:27:32;32.75;;;18.13;;
82473;SDS011;72350;53.232;6.556;2024-03-08T07:30:00;34.55;;;19.25;;
82473;SDS011;72350;53.232;6.556;2024-03-08T07:32:31;37.40;;;19.75;;
82473;SDS011;72350;53.232;6.556;2024-03-08T07:35:01;35.83;;;18.80;;
82473;SDS011;72350;53.232;6.556;2024-03-08T07:37:31;33.22;;;18.73;;
82473;SDS011;72350;53.232;6.556;2024-03-08T07:39:59;30.48;;;18.55;;
82473;SDS011;72350;53.232;6.556;2024-03-08T07:42:28;36.47;;;20.10;;
82473;SDS011;72350;53.232;6.556;2024-03-08T07:44:58;36.33;;;18.92;;
82473;SDS011;72350;53.232;6.556;2024-03-08T07:47:26;32.97;;;19.35;;
82473;SDS011;72350;53.232;6.556;2024-03-08T07:49:54;36.38;;;19.70;;
82473;SDS011;72350;53.232;6.556;2024-03-08T07:52:22;35.80;;;20.15;;
82473;SDS011;72350;53.232;6.556;2024-03-08T07:54:50;33.85;;;19.33;;
82473;SDS011;72350;53.232;6.556;2024-03-08T07:57:18;36.00;;;19.48;;
82473;SDS011;72350;53.232;6.556;2024-03-08T07:59:47;33.92;;;20.63;;
82473;SDS011;72350;53.232;6.556;2024-03-08T08:02:17;36.95;;;20.52;;
82473;SDS011;72350;53.232;6.556;2024-03-08T08:04:45;47.25;;;20.45;;
82473;SDS011;72350;53.232;6.556;2024-03-08T08:07:13;34.03;;;19.23;;
82473;SDS011;72350;53.232;6.556;2024-03-08T08:09:41;36.97;;;20.75;;
82473;SDS011;72350;53.232;6.556;2024-03-08T08:12:09;36.97;;;20.20;;
82473;SDS011;72350;53.232;6.556;2024-03-08T08:14:38;36.88;;;21.15;;
82473;SDS011;72350;53.232;6.556;2024-03-08T08:17:07;37.03;;;21.23;;
82473;SDS011;72350;53.232;6.556;2024-03-08T08:19:37;36.28;;;22.02;;
82473;SDS011;72350;53.232;6.556;2024-03-08T08:22:22;36.10;;;20.25;;
82473;SDS011;72350;53.232;6.556;2024-03-08T08:24:50;38.00;;;20.63;;
82473;SDS011;72350;53.232;6.556;2024-03-08T08:27:18;35.00;;;20.27;;
82473;SDS011;72350;53.232;6.556;2024-03-08T08:29:47;38.67;;;20.05;;
82473;SDS011;72350;53.232;6.556;2024-03-08T08:32:16;36.90;;;20.88;;
82473;SDS011;72350;53.232;6.556;2024-03-08T08:34:46;36.33;;;20.38;;
82473;SDS011;72350;53.232;6.556;2024-03-08T08:37:14;37.97;;;21.13;;
82473;SDS011;72350;53.232;6.556;2024-03-08T08:39:45;34.30;;;19.30;;
82473;SDS011;72350;53.232;6.556;2024-03-08T08:42:13;35.33;;;19.40;;
82473;SDS011;72350;53.232;6.556;2024-03-08T08:44:41;35.17;;;20.10;;
82473;SDS011;72350;53.232;6.556;2024-03-08T08:47:09;35.53;;;20.08;;
82473;SDS011;72350;53.232;6.556;2024-03-08T08:49:41;32.97;;;20.40;;
82473;SDS011;72350;53.232;6.556;2024-03-08T08:52:12;36.42;;;20.42;;
82473;SDS011;72350;53.232;6.556;2024-03-08T08:54:43;36.13;;;20.70;;
82473;SDS011;72350;53.232;6.556;2024-03-08T08:57:15;37.33;;;20.45;;
82473;SDS011;72350;53.232;6.556;2024-03-08T08:59:44;36.33;;;20.50;;
82473;SDS011;72350;53.232;6.556;2024-03-08T09:02:12;35.67;;;20.75;;
82473;SDS011;72350;53.232;6.556;2024-03-08T09:04:44;35.80;;;20.38;;
82473;SDS011;72350;53.232;6.556;2024-03-08T09:07:13;42.72;;;21.05;;
82473;SDS011;72350;53.232;6.556;2024-03-08T09:09:42;34.53;;;20.25;;
82473;SDS011;72350;53.232;6.556;2024-03-08T09:12:28;35.35;;;19.42;;
82473;SDS011;72350;53.232;6.556;2024-03-08T09:14:59;33.53;;;19.90;;
82473;SDS011;72350;53.232;6.556;2024-03-08T09:17:27;37.72;;;19.88;;
82473;SDS011;72350;53.232;6.556;2024-03-08T09:19:55;38.40;;;20.85;;
82473;SDS011;72350;53.232;6.556;2024-03-08T09:22:25;40.65;;;20.85;;
82473;SDS011;72350;53.232;6.556;2024-03-08T09:24:53;38.35;;;20.05;;
82473;SDS011;72350;53.232;6.556;2024-03-08T09:27:21;34.55;;;21.00;;
82473;SDS011;72350;53.232;6.556;2024-03-08T09:29:49;35.28;;;20.00;;
82473;SDS011;72350;53.232;6.556;2024-03-08T09:32:18;35.80;;;21.00;;
82473;SDS011;72350;53.232;6.556;2024-03-08T09:34:46;37.58;;;21.20;;
82473;SDS011;72350;53.232;6.556;2024-03-08T09:37:14;40.47;;;22.15;;
82473;SDS011;72350;53.232;6.556;2024-03-08T09:39:43;37.35;;;22.20;;
82473;SDS011;72350;53.232;6.556;2024-03-08T09:42:11;37.35;;;22.17;;
82473;SDS011;72350;53.232;6.556;2024-03-08T09:44:43;35.13;;;21.88;;
82473;SDS011;72350;53.232;6.556;2024-03-08T09:47:13;36.88;;;22.75;;
82473;SDS011;72350;53.232;6.556;2024-03-08T09:49:41;35.00;;;23.23;;
82473;SDS011;72350;53.232;6.556;2024-03-08T09:52:10;41.10;;;22.40;;
82473;SDS011;72350;53.232;6.556;2024-03-08T09:54:39;37.17;;;21.55;;
82473;SDS011;72350;53.232;6.556;2024-03-08T09:57:12;38.88;;;22.15;;
82473;SDS011;72350;53.232;6.556;2024-03-08T09:59:40;41.42;;;22.80;;
82473;SDS011;72350;53.232;6.556;2024-03-08T10:02:15;38.03;;;21.73;;
82473;SDS011;72350;53.232;6.556;2024-03-08T10:04:44;35.50;;;22.42;;
82473;SDS011;72350;53.232;6.556;2024-03-08T10:07:15;35.83;;;22.48;;
82473;SDS011;72350;53.232;6.556;2024-03-08T10:09:43;39.35;;;22.77;;
82473;SDS011;72350;53.232;6.556;2024-03-08T10:12:18;39.42;;;23.80;;
82473;SDS011;72350;53.232;6.556;2024-03-08T10:14:46;38.17;;;22.60;;
82473;SDS011;72350;53.232;6.556;2024-03-08T10:17:14;34.72;;;22.08;;
82473;SDS011;72350;53.232;6.556;2024-03-08T10:19:49;36.15;;;22.20;;
82473;SDS011;72350;53.232;6.556;2024-03-08T10:22:18;41.65;;;23.42;;
82473;SDS011;72350;53.232;6.556;2024-03-08T10:24:46;43.28;;;22.15;;
82473;SDS011;72350;53.232;6.556;2024-03-08T10:27:17;36.28;;;22.58;;
82473;SDS011;72350;53.232;6.556;2024-03-08T10:29:47;37.85;;;22.60;;
82473;SDS011;72350;53.232;6.556;2024-03-08T10:32:17;40.30;;;22.92;;
82473;SDS011;72350;53.232;6.556;2024-03-08T10:34:45;38.97;;;23.90;;
82473;SDS011;72350;53.232;6.556;2024-03-08T10:37:17;37.83;;;22.73;;
82473;SDS011;72350;53.232;6.556;2024-03-08T10:39:54;37.35;;;21.42;;
82473;SDS011;72350;53.232;6.556;2024-03-08T10:42:40;40.45;;;23.33;;
82473;SDS011;72350;53.232;6.556;2024-03-08T10:45:15;46.20;;;23.67;;
82473;SDS011;72350;53.232;6.556;2024-03-08T10:47:53;38.28;;;22.00;;
82473;SDS011;72350;53.232;6.556;2024-03-08T10:50:29;39.47;;;22.92;;
82473;SDS011;72350;53.232;6.556;2024-03-08T10:53:00;40.03;;;23.30;;
82473;SDS011;72350;53.232;6.556;2024-03-08T10:55:30;36.80;;;21.42;;
82473;SDS011;72350;53.232;6.556;2024-03-08T10:58:02;37.00;;;23.65;;
82473;SDS011;72350;53.232;6.556;2024-03-08T11:00:31;37.47;;;22.75;;
82473;SDS011;72350;53.232;6.556;2024-03-08T11:02:59;41.08;;;21.80;;
82473;SDS011;72350;53.232;6.556;2024-03-08T11:05:31;37.10;;;22.15;;
82473;SDS011;72350;53.232;6.556;2024-03-08T11:08:02;39.97;;;23.75;;
82473;SDS011;72350;53.232;6.556;2024-03-08T11:10:31;38.03;;;22.45;;
82473;SDS011;72350;53.232;6.556;2024-03-08T11:12:59;38.60;;;22.73;;
82473;SDS011;72350;53.232;6.556;2024-03-08T11:15:30;36.92;;;22.65;;
82473;SDS011;72350;53.232;6.556;2024-03-08T11:17:58;37.20;;;22.80;;
82473;SDS011;72350;53.232;6.556;2024-03-08T11:20:28;41.35;;;24.02;;
82473;SDS011;72350;53.232;6.556;2024-03-08T11:23:00;40.33;;;23.00;;
82473;SDS011;72350;53.232;6.556;2024-03-08T11:25:36;39.97;;;23.38;;
82473;SDS011;72350;53.232;6.556;2024-03-08T11:28:14;36.37;;;22.47;;
82473;SDS011;72350;53.232;6.556;2024-03-08T11:30:47;38.72;;;24.15;;
82473;SDS011;72350;53.232;6.556;2024-03-08T11:33:36;39.30;;;23.85;;
82473;SDS011;72350;53.232;6.556;2024-03-08T11:36:10;38.30;;;22.88;;
82473;SDS011;72350;53.232;6.556;2024-03-08T11:41:11;37.28;;;22.30;;
82473;SDS011;72350;53.232;6.556;2024-03-08T11:43:44;35.75;;;22.48;;
82473;SDS011;72350;53.232;6.556;2024-03-08T11:46:15;38.45;;;23.50;;
82473;SDS011;72350;53.232;6.556;2024-03-08T11:48:46;34.72;;;22.90;;
82473;SDS011;72350;53.232;6.556;2024-03-08T11:51:15;36.90;;;23.13;;
82473;SDS011;72350;53.232;6.556;2024-03-08T11:53:45;36.45;;;24.33;;
82473;SDS011;72350;53.232;6.556;2024-03-08T11:56:14;44.63;;;23.55;;
82473;SDS011;72350;53.232;6.556;2024-03-08T11:58:47;40.47;;;24.00;;
82473;SDS011;72350;53.232;6.556;2024-03-08T12:01:24;37.50;;;23.70;;
82473;SDS011;72350;53.232;6.556;2024-03-08T12:03:53;37.70;;;23.40;;
82473;SDS011;72350;53.232;6.556;2024-03-08T12:06:22;42.08;;;23.33;;
82473;SDS011;72350;53.232;6.556;2024-03-08T12:08:50;39.25;;;24.30;;
82473;SDS011;72350;53.232;6.556;2024-03-08T12:11:18;36.83;;;23.88;;
82473;SDS011;72350;53.232;6.556;2024-03-08T12:13:49;41.95;;;24.48;;
82473;SDS011;72350;53.232;6.556;2024-03-08T12:16:19;38.38;;;23.85;;
82473;SDS011;72350;53.232;6.556;2024-03-08T12:18:50;38.00;;;23.00;;
82473;SDS011;72350;53.232;6.556;2024-03-08T12:21:20;43.47;;;23.00;;
82473;SDS011;72350;53.232;6.556;2024-03-08T12:24:01;36.88;;;24.00;;
82473;SDS011;72350;53.232;6.556;2024-03-08T12:26:32;45.30;;;23.50;;
82473;SDS011;72350;53.232;6.556;2024-03-08T12:29:16;40.30;;;24.25;;
82473;SDS011;72350;53.232;6.556;2024-03-08T12:31:50;42.65;;;23.10;;
82473;SDS011;72350;53.232;6.556;2024-03-08T12:34:21;38.15;;;22.45;;
82473;SDS011;72350;53.232;6.556;2024-03-08T12:36:50;39.55;;;22.92;;
82473;SDS011;72350;53.232;6.556;2024-03-08T12:39:21;36.85;;;23.80;;
82473;SDS011;72350;53.232;6.556;2024-03-08T12:41:54;34.97;;;22.67;;
82473;SDS011;72350;53.232;6.556;2024-03-08T12:44:24;35.95;;;24.25;;
82473;SDS011;72350;53.232;6.556;2024-03-08T12:46:52;34.63;;;22.15;;
82473;SDS011;72350;53.232;6.556;2024-03-08T12:49:22;36.28;;;24.15;;
82473;SDS011;72350;53.232;6.556;2024-03-08T12:51:52;39.90;;;23.05;;
82473;SDS011;72350;53.232;6.556;2024-03-08T12:54:21;34.13;;;22.45;;
82473;SDS011;72350;53.232;6.556;2024-03-08T12:56:51;37.88;;;22.95;;
82473;SDS011;72350;53.232;6.556;2024-03-08T12:59:21;36.30;;;22.13;;
82473;SDS011;72350;53.232;6.556;2024-03-08T13:01:50;36.28;;;23.23;;
82473;SDS011;72350;53.232;6.556;2024-03-08T13:04:20;36.15;;;22.05;;
82473;SDS011;72350;53.232;6.556;2024-03-08T13:06:52;38.10;;;22.65;;
82473;SDS011;72350;53.232;6.556;2024-03-08T13:09:21;35.33;;;22.08;;
82473;SDS011;72350;53.232;6.556;2024-03-08T13:11:50;37.38;;;22.35;;
82473;SDS011;72350;53.232;6.556;2024-03-08T13:14:21;33.38;;;21.75;;
82473;SDS011;72350;53.232;6.556;2024-03-08T13:16:50;38.13;;;22.00;;
82473;SDS011;72350;53.232;6.556;2024-03-08T13:19:19;33.63;;;22.20;;
82473;SDS011;72350;53.232;6.556;2024-03-08T13:21:50;36.90;;;21.30;;
82473;SDS011;72350;53.232;6.556;2024-03-08T13:24:20;32.65;;;21.02;;
82473;SDS011;72350;53.232;6.556;2024-03-08T13:26:48;33.17;;;21.55;;
82473;SDS011;72350;53.232;6.556;2024-03-08T13:29:17;32.88;;;20.23;;
82473;SDS011;72350;53.232;6.556;2024-03-08T13:31:47;32.08;;;20.02;;
82473;SDS011;72350;53.232;6.556;2024-03-08T13:34:18;30.77;;;20.27;;
82473;SDS011;72350;53.232;6.556;2024-03-08T13:36:56;28.83;;;19.25;;
82473;SDS011;72350;53.232;6.556;2024-03-08T13:39:27;31.92;;;20.05;;
82473;SDS011;72350;53.232;6.556;2024-03-08T13:41:58;28.80;;;19.75;;
82473;SDS011;72350;53.232;6.556;2024-03-08T13:44:27;28.33;;;18.63;;
82473;SDS011;72350;53.232;6.556;2024-03-08T13:46:56;32.13;;;19.77;;
82473;SDS011;72350;53.232;6.556;2024-03-08T13:49:25;27.77;;;18.38;;
82473;SDS011;72350;53.232;6.556;2024-03-08T13:51:53;27.85;;;18.48;;
82473;SDS011;72350;53.232;6.556;2024-03-08T13:54:25;33.33;;;20.30;;
82473;SDS011;72350;53.232;6.556;2024-03-08T13:56:57;29.30;;;19.55;;
82473;SDS011;72350;53.232;6.556;2024-03-08T13:59:25;30.02;;;19.08;;
82473;SDS011;72350;53.232;6.556;2024-03-08T14:01:55;26.42;;;17.92;;
82473;SDS011;72350;53.232;6.556;2024-03-08T14:04:25;28.40;;;18.58;;
82473;SDS011;72350;53.232;6.556;2024-03-08T14:06:56;29.83;;;18.90;;
82473;SDS011;72350;53.232;6.556;2024-03-08T14:09:29;29.13;;;18.95;;
82473;SDS011;72350;53.232;6.556;2024-03-08T14:11:58;27.20;;;18.33;;
82473;SDS011;72350;53.232;6.556;2024-03-08T14:14:26;27.73;;;18.58;;
82473;SDS011;72350;53.232;6.556;2024-03-08T14:16:54;29.65;;;19.20;;
82473;SDS011;72350;53.232;6.556;2024-03-08T14:19:24;29.58;;;18.55;;
82473;SDS011;72350;53.232;6.556;2024-03-08T14:21:53;29.35;;;19.73;;
82473;SDS011;72350;53.232;6.556;2024-03-08T14:24:22;28.33;;;18.25;;
82473;SDS011;72350;53.232;6.556;2024-03-08T14:26:50;30.25;;;18.95;;
82473;SDS011;72350;53.232;6.556;2024-03-08T14:29:19;33.40;;;19.17;;
82473;SDS011;72350;53.232;6.556;2024-03-08T14:31:49;27.35;;;17.42;;
82473;SDS011;72350;53.232;6.556;2024-03-08T14:34:17;29.25;;;18.73;;
82473;SDS011;72350;53.232;6.556;2024-03-08T14:36:46;28.05;;;19.17;;